createdAt,value
2023-01-09T00:01:27.503Z,100.00
2023-01-09T00:04:00.360Z,100.00
2023-01-09T00:06:33.131Z,100.00
2023-01-09T00:09:05.919Z,100.00
2023-01-09T00:11:39.034Z,100.00
2023-01-09T00:14:13.207Z,100.00
2023-01-09T00:16:46.066Z,100.00
2023-01-09T00:19:18.869Z,100.00
2023-01-09T00:21:51.656Z,100.00
2023-01-09T00:24:24.408Z,100.00
2023-01-09T00:26:57.168Z,100.00
2023-01-09T00:29:31.704Z,100.00
2023-01-09T00:32:09.917Z,100.00
2023-01-09T00:34:43.929Z,100.00
2023-01-09T00:37:16.923Z,100.00
2023-01-09T00:39:49.733Z,100.00
2023-01-09T00:42:25.940Z,100.00
2023-01-09T00:45:03.297Z,100.00
2023-01-09T00:47:39.569Z,100.00
2023-01-09T00:50:17.063Z,100.00
2023-01-09T00:52:51.507Z,100.00
2023-01-09T00:55:24.911Z,100.00
2023-01-09T00:57:57.872Z,100.00
2023-01-09T01:00:32.027Z,100.00
2023-01-09T01:03:05.308Z,100.00
2023-01-09T01:05:55.704Z,100.00
2023-01-09T01:08:28.538Z,100.00
2023-01-09T01:11:05.309Z,100.00
2023-01-09T01:13:39.059Z,100.00
2023-01-09T01:16:14.276Z,100.00
2023-01-09T01:18:47.156Z,100.00
2023-01-09T01:21:21.334Z,100.00
2023-01-09T01:23:54.089Z,100.00
2023-01-09T01:26:26.818Z,100.00
2023-01-09T01:29:00.036Z,100.00
2023-01-09T01:31:34.113Z,100.00
2023-01-09T01:34:07.113Z,100.00
2023-01-09T01:36:40.141Z,100.00
2023-01-09T01:39:13.060Z,100.00
2023-01-09T01:41:45.894Z,100.00
2023-01-09T01:44:56.491Z,100.00
2023-01-09T01:47:37.673Z,100.00
2023-01-09T01:50:22.682Z,100.00
2023-01-09T01:53:01.749Z,100.00
2023-01-09T01:55:37.047Z,100.00
2023-01-09T01:58:13.740Z,100.00
2023-01-09T02:00:48.563Z,100.00
2023-01-09T02:03:26.622Z,100.00
2023-01-09T02:05:59.448Z,100.00
2023-01-09T02:08:32.740Z,100.00
2023-01-09T02:11:06.761Z,100.00
2023-01-09T02:13:40.433Z,100.00
2023-01-09T02:16:26.554Z,100.00
2023-01-09T02:19:14.192Z,100.00
2023-01-09T02:22:05.882Z,100.00
2023-01-09T02:25:06.085Z,100.00
2023-01-09T02:28:16.744Z,100.00
2023-01-09T02:30:56.463Z,100.00
2023-01-09T02:33:47.780Z,100.00
2023-01-09T02:36:31.278Z,100.00
2023-01-09T02:39:21.683Z,100.00
2023-01-09T02:41:58.826Z,100.00
2023-01-09T02:44:33.837Z,100.00
2023-01-09T02:47:27.822Z,100.00
2023-01-09T02:50:03.831Z,100.00
2023-01-09T02:52:55.295Z,100.00
2023-01-09T02:55:42.763Z,100.00
2023-01-09T02:58:24.225Z,100.00
2023-01-09T03:01:06.772Z,100.00
2023-01-09T03:03:49.024Z,100.00
2023-01-09T03:06:30.483Z,100.00
2023-01-09T03:09:09.602Z,100.00
2023-01-09T03:11:48.499Z,100.00
2023-01-09T03:14:25.047Z,100.00
2023-01-09T03:17:01.899Z,100.00
2023-01-09T03:19:36.807Z,100.00
2023-01-09T03:22:09.842Z,100.00
2023-01-09T03:24:42.657Z,100.00
2023-01-09T03:27:15.963Z,100.00
2023-01-09T03:29:48.748Z,100.00
2023-01-09T03:32:21.565Z,100.00
2023-01-09T03:34:55.604Z,100.00
2023-01-09T03:37:28.297Z,100.00
2023-01-09T03:40:01.026Z,100.00
2023-01-09T03:42:33.753Z,100.00
2023-01-09T03:45:07.767Z,100.00
2023-01-09T03:47:40.956Z,100.00
2023-01-09T03:50:15.079Z,100.00
2023-01-09T03:52:47.815Z,100.00
2023-01-09T03:55:20.539Z,100.00
2023-01-09T03:57:53.653Z,98.71
2023-01-09T04:00:26.449Z,99.64
2023-01-09T04:02:59.167Z,99.36
2023-01-09T04:05:33.247Z,99.51
2023-01-09T04:08:06.721Z,99.54
2023-01-09T04:10:39.468Z,99.46
2023-01-09T04:13:12.389Z,99.20
2023-01-09T04:15:45.148Z,99.56
2023-01-09T04:18:17.934Z,99.69
2023-01-09T04:20:53.396Z,99.08
2023-01-09T04:23:28.091Z,100.00
2023-01-09T04:26:00.845Z,99.87
2023-01-09T04:28:33.619Z,99.39
2023-01-09T04:31:07.721Z,99.81
2023-01-09T04:33:40.459Z,99.15
2023-01-09T04:36:14.645Z,100.00
2023-01-09T04:38:47.418Z,100.00
2023-01-09T04:41:34.151Z,100.00
2023-01-09T04:44:07.071Z,100.00
2023-01-09T04:46:39.826Z,100.00
2023-01-09T04:49:12.787Z,100.00
2023-01-09T04:51:47.133Z,100.00
2023-01-09T04:54:20.034Z,100.00
2023-01-09T04:56:52.768Z,100.00
2023-01-09T04:59:25.652Z,100.00
2023-01-09T05:01:59.392Z,99.71
2023-01-09T05:04:32.473Z,100.00
2023-01-09T05:07:06.694Z,100.00
2023-01-09T05:09:39.458Z,100.00
2023-01-09T05:12:12.231Z,100.00
2023-01-09T05:14:45.012Z,100.00
2023-01-09T05:17:17.774Z,100.00
2023-01-09T05:19:50.528Z,100.00
2023-01-09T05:22:25.090Z,100.00
2023-01-09T05:25:00.297Z,100.00
2023-01-09T05:27:33.461Z,99.64
2023-01-09T05:30:07.140Z,99.94
2023-01-09T05:32:39.909Z,99.28
2023-01-09T05:35:12.756Z,98.52
2023-01-09T05:37:46.949Z,98.07
2023-01-09T05:40:19.997Z,98.34
2023-01-09T05:42:52.850Z,97.10
2023-01-09T05:45:27.277Z,99.62
2023-01-09T05:48:00.118Z,97.58
2023-01-09T05:50:33.049Z,97.43
2023-01-09T05:53:07.344Z,96.99
2023-01-09T05:55:40.159Z,97.73
2023-01-09T05:58:12.908Z,97.76
2023-01-09T06:00:45.685Z,96.66
2023-01-09T06:03:18.693Z,95.16
2023-01-09T06:05:51.655Z,96.43
2023-01-09T06:08:25.901Z,95.44
2023-01-09T06:10:58.668Z,94.41
2023-01-09T06:13:31.426Z,94.85
2023-01-09T06:16:04.394Z,94.96
2023-01-09T06:18:37.167Z,94.59
2023-01-09T06:21:09.913Z,94.27
2023-01-09T06:23:44.075Z,93.92
2023-01-09T06:26:16.875Z,94.31
2023-01-09T06:28:49.622Z,93.64
2023-01-09T06:31:22.524Z,95.30
2023-01-09T06:33:55.323Z,94.77
2023-01-09T06:36:28.137Z,93.94
2023-01-09T06:39:02.623Z,94.00
2023-01-09T06:41:35.755Z,94.59
2023-01-09T06:44:08.496Z,93.52
2023-01-09T06:46:41.417Z,93.54
2023-01-09T06:49:14.209Z,94.53
2023-01-09T06:51:46.971Z,95.86
2023-01-09T06:54:21.571Z,95.96
2023-01-09T06:56:54.316Z,95.59
2023-01-09T06:59:27.177Z,96.72
2023-01-09T07:02:00.160Z,96.84
2023-01-09T07:04:33.000Z,97.84
2023-01-09T07:07:05.869Z,97.06
2023-01-09T07:09:40.280Z,97.23
2023-01-09T07:12:14.758Z,96.90
2023-01-09T07:14:47.524Z,97.60
2023-01-09T07:17:20.230Z,98.65
2023-01-09T07:19:53.033Z,97.29
2023-01-09T07:22:25.747Z,96.97
2023-01-09T07:24:59.842Z,97.71
2023-01-09T07:27:32.739Z,97.36
2023-01-09T07:30:07.966Z,97.11
2023-01-09T07:32:41.089Z,96.23
2023-01-09T07:35:13.902Z,95.98
2023-01-09T07:37:47.460Z,96.07
2023-01-09T07:40:22.707Z,95.87
2023-01-09T07:42:55.655Z,96.24
2023-01-09T07:45:28.458Z,95.93
2023-01-09T07:48:01.290Z,95.49
2023-01-09T07:50:34.113Z,94.95
2023-01-09T07:53:06.840Z,95.21
2023-01-09T07:55:43.377Z,95.50
2023-01-09T07:58:16.166Z,94.08
2023-01-09T08:00:49.009Z,93.80
2023-01-09T08:03:21.751Z,93.14
2023-01-09T08:05:54.506Z,93.41
2023-01-09T08:08:27.449Z,92.39
2023-01-09T08:11:04.219Z,92.99
2023-01-09T08:13:37.071Z,92.15
2023-01-09T08:16:09.975Z,92.74
2023-01-09T08:18:42.973Z,92.52
2023-01-09T08:21:15.680Z,91.98
2023-01-09T08:23:48.450Z,92.92
2023-01-09T08:26:22.624Z,92.35
2023-01-09T08:28:55.371Z,93.60
2023-01-09T08:31:28.170Z,92.70
2023-01-09T08:34:00.961Z,92.57
2023-01-09T08:36:33.842Z,92.78
2023-01-09T08:39:06.767Z,93.07
2023-01-09T08:41:58.559Z,93.72
2023-01-09T08:44:48.758Z,93.63
2023-01-09T08:47:24.263Z,94.42
2023-01-09T08:49:57.699Z,94.43
2023-01-09T08:52:30.623Z,95.27
2023-01-09T08:55:03.643Z,94.85
2023-01-09T08:57:37.806Z,93.84
2023-01-09T09:00:11.976Z,94.57
2023-01-09T09:02:44.806Z,92.57
2023-01-09T09:05:17.700Z,94.08
2023-01-09T09:07:50.902Z,94.01
2023-01-09T09:10:24.676Z,93.80
2023-01-09T09:13:00.097Z,94.33
2023-01-09T09:15:34.271Z,93.96
2023-01-09T09:18:09.107Z,95.63
2023-01-09T09:20:41.834Z,96.04
2023-01-09T09:23:14.652Z,96.42
2023-01-09T09:25:47.677Z,96.13
2023-01-09T09:28:21.795Z,96.32
2023-01-09T09:30:54.831Z,97.40
2023-01-09T09:33:27.810Z,96.69
2023-01-09T09:36:00.905Z,96.49
2023-01-09T09:38:33.680Z,96.42
2023-01-09T09:41:40.973Z,96.16
2023-01-09T09:44:52.601Z,96.01
2023-01-09T09:47:43.291Z,95.91
2023-01-09T09:50:26.638Z,95.58
2023-01-09T09:53:07.162Z,95.92
2023-01-09T09:55:42.102Z,95.63
2023-01-09T09:58:17.299Z,95.06
2023-01-09T10:00:52.076Z,94.86
2023-01-09T10:03:33.852Z,96.00
2023-01-09T10:06:12.336Z,95.48
2023-01-09T10:08:53.329Z,95.92
2023-01-09T10:11:33.367Z,95.68
2023-01-09T10:14:16.023Z,96.38
2023-01-09T10:17:11.052Z,95.49
2023-01-09T10:20:02.846Z,94.28
2023-01-09T10:22:47.068Z,94.91
2023-01-09T10:25:28.832Z,95.77
2023-01-09T10:28:18.530Z,93.91
2023-01-09T10:30:54.217Z,94.78
2023-01-09T10:33:48.330Z,93.69
2023-01-09T10:36:55.006Z,93.86
2023-01-09T10:39:36.437Z,94.38
2023-01-09T10:42:19.750Z,94.54
2023-01-09T10:44:57.995Z,95.41
2023-01-09T10:47:34.193Z,95.54
2023-01-09T10:50:20.245Z,96.06
2023-01-09T10:52:55.777Z,94.69
2023-01-09T10:55:38.584Z,95.71
2023-01-09T10:58:13.622Z,95.19
2023-01-09T11:00:47.313Z,97.26
2023-01-09T11:03:22.511Z,95.64
2023-01-09T11:05:57.776Z,94.97
2023-01-09T11:08:34.864Z,94.74
2023-01-09T11:11:07.715Z,94.29
2023-01-09T11:13:46.723Z,94.87
2023-01-09T11:16:22.339Z,94.15
2023-01-09T11:18:57.634Z,93.87
2023-01-09T11:21:37.949Z,93.40
2023-01-09T11:24:31.381Z,93.17
2023-01-09T11:27:24.692Z,93.25
2023-01-09T11:30:22.392Z,93.38
2023-01-09T11:32:57.077Z,93.01
2023-01-09T11:35:34.415Z,92.10
2023-01-09T11:38:16.030Z,93.30
2023-01-09T11:40:51.699Z,94.08
2023-01-09T11:43:32.503Z,92.99
2023-01-09T11:46:08.025Z,93.22
2023-01-09T11:48:54.016Z,93.10
2023-01-09T11:51:28.561Z,93.17
2023-01-09T11:54:21.007Z,91.39
2023-01-09T11:56:54.256Z,92.49
2023-01-09T11:59:29.649Z,91.08
2023-01-09T12:02:33.867Z,91.06
2023-01-09T12:05:19.255Z,90.27
2023-01-09T12:07:58.655Z,89.93
2023-01-09T12:10:48.350Z,89.54
2023-01-09T12:13:34.705Z,89.28
2023-01-09T12:16:14.100Z,89.79
2023-01-09T12:19:02.814Z,90.34
2023-01-09T12:21:38.755Z,88.59
2023-01-09T12:24:51.091Z,89.53
2023-01-09T12:27:39.285Z,89.11
2023-01-09T12:30:23.570Z,89.03
2023-01-09T12:33:12.665Z,89.29
2023-01-09T12:35:51.481Z,89.54
2023-01-09T12:38:35.780Z,89.86
2023-01-09T12:41:59.397Z,89.83
2023-01-09T12:44:50.439Z,88.96
2023-01-09T12:47:43.856Z,88.40
2023-01-09T12:50:48.661Z,89.57
2023-01-09T12:53:26.499Z,88.90
2023-01-09T12:56:05.377Z,89.26
2023-01-09T12:58:44.476Z,89.34
2023-01-09T13:01:24.121Z,89.01
2023-01-09T13:04:10.681Z,89.42
2023-01-09T13:06:48.773Z,89.09
2023-01-09T13:09:27.583Z,90.42
2023-01-09T13:12:05.857Z,90.20
2023-01-09T13:14:51.519Z,91.32
2023-01-09T13:17:31.068Z,89.63
2023-01-09T13:20:18.429Z,89.94
2023-01-09T13:22:52.850Z,90.65
2023-01-09T13:25:43.269Z,91.02
2023-01-09T13:28:20.132Z,94.33
2023-01-09T13:31:08.980Z,94.72
2023-01-09T13:33:46.515Z,96.15
2023-01-09T13:36:26.810Z,95.74
2023-01-09T13:39:01.737Z,94.98
2023-01-09T13:41:51.942Z,95.60
2023-01-09T13:44:28.492Z,94.58
2023-01-09T13:47:03.535Z,95.42
2023-01-09T13:50:15.835Z,96.12
2023-01-09T13:52:50.062Z,95.16
2023-01-09T13:55:35.768Z,95.23
2023-01-09T13:58:23.451Z,94.26
2023-01-09T14:00:59.712Z,94.39
2023-01-09T14:03:37.364Z,94.07
2023-01-09T14:06:20.508Z,94.54
2023-01-09T14:09:19.581Z,94.21
2023-01-09T14:12:04.424Z,94.28
2023-01-09T14:14:37.450Z,95.03
2023-01-09T14:17:18.210Z,94.55
2023-01-09T14:19:56.538Z,93.46
2023-01-09T14:22:42.417Z,94.12
2023-01-09T14:25:27.398Z,93.01
2023-01-09T14:28:22.204Z,94.12
2023-01-09T14:31:09.868Z,94.21
2023-01-09T14:33:42.664Z,94.39
2023-01-09T14:36:21.678Z,94.48
2023-01-09T14:38:58.511Z,95.14
2023-01-09T14:41:54.791Z,94.12
2023-01-09T14:44:30.524Z,93.97
2023-01-09T14:47:13.510Z,94.52
2023-01-09T14:49:51.363Z,94.31
2023-01-09T14:52:29.156Z,92.78
2023-01-09T14:55:03.819Z,93.03
2023-01-09T14:57:37.938Z,92.10
2023-01-09T15:00:18.660Z,91.62
2023-01-09T15:02:54.434Z,92.08
2023-01-09T15:05:28.147Z,91.38
2023-01-09T15:08:04.221Z,92.40
2023-01-09T15:10:39.175Z,92.18
2023-01-09T15:13:15.335Z,93.03
2023-01-09T15:15:49.510Z,92.94
2023-01-09T15:18:25.758Z,93.87
2023-01-09T15:21:02.024Z,92.94
2023-01-09T15:23:34.797Z,94.29
2023-01-09T15:26:23.365Z,93.46
2023-01-09T15:29:06.180Z,93.63
2023-01-09T15:31:42.523Z,94.19
2023-01-09T15:34:19.029Z,93.97
2023-01-09T15:36:52.958Z,92.94
2023-01-09T15:39:27.607Z,93.71
2023-01-09T15:42:19.009Z,93.23
2023-01-09T15:44:53.997Z,93.28
2023-01-09T15:47:27.710Z,93.34
2023-01-09T15:50:02.228Z,93.64
2023-01-09T15:52:35.233Z,94.52
2023-01-09T15:55:26.178Z,94.84
2023-01-09T15:57:59.301Z,94.83
2023-01-09T16:00:43.853Z,95.18
2023-01-09T16:03:22.453Z,95.96
2023-01-09T16:06:05.153Z,95.75
2023-01-09T16:08:41.147Z,95.40
2023-01-09T16:11:24.718Z,96.31
2023-01-09T16:14:03.598Z,95.97
2023-01-09T16:16:37.997Z,96.33
2023-01-09T16:19:31.079Z,96.43
2023-01-09T16:22:04.774Z,97.28
2023-01-09T16:24:41.332Z,97.85
2023-01-09T16:27:28.623Z,97.70
2023-01-09T16:30:05.028Z,98.31
2023-01-09T16:32:51.354Z,98.78
2023-01-09T16:35:26.949Z,99.48
2023-01-09T16:38:00.347Z,99.76
2023-01-09T16:40:36.052Z,99.67
2023-01-09T16:43:11.254Z,100.00
2023-01-09T16:45:44.719Z,100.00
2023-01-09T16:48:22.520Z,100.00
2023-01-09T16:50:55.352Z,100.00
2023-01-09T16:53:31.749Z,100.00
2023-01-09T16:56:04.917Z,100.00
2023-01-09T16:58:37.735Z,100.00
2023-01-09T17:01:13.384Z,100.00
2023-01-09T17:03:49.559Z,100.00
2023-01-09T17:06:24.157Z,100.00
2023-01-09T17:08:57.303Z,100.00
2023-01-09T17:11:31.697Z,100.00
2023-01-09T17:14:07.357Z,100.00
2023-01-09T17:16:43.129Z,100.00
2023-01-09T17:19:20.730Z,100.00
2023-01-09T17:21:53.731Z,100.00
2023-01-09T17:24:44.361Z,100.00
2023-01-09T17:27:36.540Z,100.00
2023-01-09T17:30:18.732Z,100.00
2023-01-09T17:32:51.966Z,100.00
2023-01-09T17:35:26.805Z,100.00
2023-01-09T17:37:59.655Z,99.67
2023-01-09T17:40:35.814Z,99.72
2023-01-09T17:43:08.680Z,99.59
2023-01-09T17:45:42.687Z,99.92
2023-01-09T17:48:17.611Z,99.54
2023-01-09T17:50:51.724Z,100.00
2023-01-09T17:53:25.328Z,99.74
2023-01-09T17:55:58.900Z,100.00
2023-01-09T17:58:31.908Z,99.22
2023-01-09T18:01:05.491Z,99.19
2023-01-09T18:03:38.748Z,99.08
2023-01-09T18:06:14.320Z,98.47
2023-01-09T18:08:47.719Z,99.10
2023-01-09T18:11:22.469Z,98.34
2023-01-09T18:13:56.140Z,98.93
2023-01-09T18:16:30.272Z,99.17
2023-01-09T18:19:03.743Z,98.24
2023-01-09T18:21:37.927Z,98.62
2023-01-09T18:24:10.813Z,98.65
2023-01-09T18:26:43.702Z,98.50
2023-01-09T18:29:16.649Z,98.39
2023-01-09T18:31:51.147Z,98.65
2023-01-09T18:34:23.973Z,99.51
2023-01-09T18:36:58.227Z,99.77
2023-01-09T18:39:31.358Z,100.00
2023-01-09T18:42:04.188Z,99.76
2023-01-09T18:44:37.052Z,100.00
2023-01-09T18:47:09.851Z,100.00
2023-01-09T18:49:42.638Z,100.00
2023-01-09T18:52:16.884Z,100.00
2023-01-09T18:54:49.865Z,100.00
2023-01-09T18:57:22.704Z,100.00
2023-01-09T18:59:55.488Z,100.00
2023-01-09T19:02:28.509Z,100.00
2023-01-09T19:05:01.351Z,100.00
2023-01-09T19:07:35.544Z,100.00
2023-01-09T19:10:09.700Z,100.00
2023-01-09T19:12:42.538Z,100.00
2023-01-09T19:15:15.430Z,100.00
2023-01-09T19:17:50.233Z,100.00
2023-01-09T19:20:23.322Z,99.67
2023-01-09T19:22:58.046Z,100.00
2023-01-09T19:25:30.831Z,100.00
2023-01-09T19:28:03.938Z,99.93
2023-01-09T19:30:38.193Z,99.06
2023-01-09T19:33:12.483Z,99.19
2023-01-09T19:35:49.145Z,99.53
2023-01-09T19:38:26.805Z,99.30
2023-01-09T19:41:08.955Z,99.03
2023-01-09T19:43:42.161Z,98.96
2023-01-09T19:46:16.746Z,98.58
2023-01-09T19:48:49.844Z,98.81
2023-01-09T19:51:23.006Z,99.66
2023-01-09T19:56:34.976Z,99.52
2023-01-09T19:59:08.361Z,98.75
2023-01-09T20:01:42.704Z,99.22
2023-01-09T20:04:17.197Z,99.12
2023-01-09T20:06:52.579Z,99.42
2023-01-09T20:09:28.752Z,100.00
2023-01-09T20:12:03.809Z,100.00
2023-01-09T20:14:37.701Z,100.00
2023-01-09T20:17:10.495Z,100.00
2023-01-09T20:19:44.265Z,100.00
2023-01-09T20:22:17.556Z,100.00
2023-01-09T20:24:51.702Z,100.00
2023-01-09T20:27:24.600Z,100.00
2023-01-09T20:29:57.403Z,99.68
2023-01-09T20:32:32.228Z,99.71
2023-01-09T20:35:05.324Z,99.52
2023-01-09T20:37:39.964Z,100.00
2023-01-09T20:40:14.253Z,99.54
2023-01-09T20:42:47.029Z,100.00
2023-01-09T20:45:19.857Z,100.00
2023-01-09T20:47:54.145Z,99.42
2023-01-09T20:50:27.092Z,99.58
2023-01-09T20:53:00.048Z,100.00
2023-01-09T20:55:34.605Z,100.00
2023-01-09T20:58:07.455Z,99.68
2023-01-09T21:00:40.305Z,99.43
2023-01-09T21:03:16.103Z,99.47
2023-01-09T21:05:49.042Z,98.85
2023-01-09T21:08:21.833Z,99.29
2023-01-09T21:10:58.105Z,98.90
2023-01-09T21:13:31.514Z,98.80
2023-01-09T21:16:07.754Z,100.00
2023-01-09T21:18:43.855Z,100.00
2023-01-09T21:21:18.570Z,100.00
2023-01-09T21:23:53.393Z,100.00
2023-01-09T21:26:30.258Z,100.00
2023-01-09T21:29:08.121Z,100.00
2023-01-09T21:31:41.563Z,100.00
2023-01-09T21:34:14.781Z,100.00
2023-01-09T21:36:48.690Z,100.00
2023-01-09T21:39:22.090Z,100.00
2023-01-09T21:42:14.139Z,100.00
2023-01-09T21:45:04.289Z,100.00
2023-01-09T21:47:37.064Z,100.00
2023-01-09T21:50:10.982Z,100.00
2023-01-09T21:52:43.730Z,100.00
2023-01-09T21:55:16.766Z,100.00
2023-01-09T21:57:54.427Z,100.00
2023-01-09T22:00:27.859Z,100.00
2023-01-09T22:03:01.078Z,100.00
2023-01-09T22:05:37.119Z,100.00
2023-01-09T22:08:09.867Z,100.00
2023-01-09T22:10:42.642Z,100.00
2023-01-09T22:13:17.626Z,100.00
2023-01-09T22:15:50.572Z,100.00
2023-01-09T22:18:23.494Z,100.00
2023-01-09T22:20:56.297Z,100.00
2023-01-09T22:23:29.575Z,100.00
2023-01-09T22:26:08.137Z,100.00
2023-01-09T22:28:43.231Z,100.00
2023-01-09T22:31:18.363Z,100.00
2023-01-09T22:33:51.995Z,100.00
2023-01-09T22:36:25.523Z,100.00
2023-01-09T22:38:59.793Z,100.00
2023-01-09T22:41:33.716Z,100.00
2023-01-09T22:44:07.876Z,100.00
2023-01-09T22:46:40.709Z,100.00
2023-01-09T22:49:14.098Z,100.00
2023-01-09T22:51:46.906Z,100.00
2023-01-09T22:54:20.883Z,100.00
2023-01-09T22:56:53.855Z,100.00
2023-01-09T22:59:27.993Z,100.00
2023-01-09T23:02:01.003Z,100.00
2023-01-09T23:04:33.847Z,100.00
2023-01-09T23:07:06.671Z,100.00
2023-01-09T23:09:39.479Z,100.00
2023-01-09T23:12:12.294Z,100.00
2023-01-09T23:14:46.439Z,100.00
2023-01-09T23:17:19.279Z,100.00
2023-01-09T23:19:52.420Z,100.00
2023-01-09T23:22:25.823Z,100.00
2023-01-09T23:24:58.609Z,100.00
2023-01-09T23:27:31.453Z,100.00
2023-01-09T23:30:06.923Z,100.00
2023-01-09T23:32:39.900Z,100.00
2023-01-09T23:35:12.978Z,100.00
2023-01-09T23:37:45.790Z,100.00
2023-01-09T23:40:20.011Z,100.00
2023-01-09T23:43:10.827Z,100.00
2023-01-09T23:45:46.642Z,100.00
2023-01-09T23:48:19.612Z,100.00
2023-01-09T23:50:53.772Z,100.00
2023-01-09T23:53:26.906Z,100.00
2023-01-09T23:56:01.113Z,100.00
2023-01-09T23:58:34.094Z,100.00
